sensor_id;sensor_type;location;lat;lon;timestamp;pressure;altitude;pressure_sealevel;temperature;humidity
58973;BME280;44750;52.040;7.472;2023-02-11T00:02:03;102149.28;;;6.24;40.39
58973;BME280;44750;52.040;7.472;2023-02-11T00:07:03;102177.41;;;6.34;39.31
58973;BME280;44750;52.040;7.472;2023-02-11T00:12:04;102154.03;;;6.35;38.60
58973;BME280;44750;52.040;7.472;2023-02-11T00:17:04;102134.81;;;6.27;38.04
58973;BME280;44750;52.040;7.472;2023-02-11T00:22:05;102143.81;;;6.26;36.06
58973;BME280;44750;52.040;7.472;2023-02-11T00:27:05;102140.34;;;6.24;34.35
58973;BME280;44750;52.040;7.472;2023-02-11T00:32:06;102163.16;;;6.32;32.75
58973;BME280;44750;52.040;7.472;2023-02-11T00:37:06;102172.34;;;6.28;30.41
58973;BME280;44750;52.040;7.472;2023-02-11T00:42:06;102173.91;;;6.32;29.30
58973;BME280;44750;52.040;7.472;2023-02-11T00:47:06;102165.16;;;6.29;28.69
58973;BME280;44750;52.040;7.472;2023-02-11T00:52:07;102173.91;;;6.32;28.47
58973;BME280;44750;52.040;7.472;2023-02-11T00:57:07;102203.81;;;6.42;28.60
58973;BME280;44750;52.040;7.472;2023-02-11T01:02:07;102182.31;;;6.42;29.50
58973;BME280;44750;52.040;7.472;2023-02-11T01:07:08;102169.84;;;6.41;29.35
58973;BME280;44750;52.040;7.472;2023-02-11T01:12:08;102149.16;;;6.42;29.05
58973;BME280;44750;52.040;7.472;2023-02-11T01:17:09;102173.88;;;6.48;29.69
58973;BME280;44750;52.040;7.472;2023-02-11T01:22:09;102165.22;;;6.43;29.73
58973;BME280;44750;52.040;7.472;2023-02-11T01:27:09;102144.63;;;6.42;29.71
58973;BME280;44750;52.040;7.472;2023-02-11T01:32:09;102102.84;;;6.36;30.10
58973;BME280;44750;52.040;7.472;2023-02-11T01:37:10;102099.31;;;6.36;30.15
58973;BME280;44750;52.040;7.472;2023-02-11T01:42:15;102100.84;;;6.40;30.25
58973;BME280;44750;52.040;7.472;2023-02-11T01:47:16;102090.25;;;6.37;30.42
58973;BME280;44750;52.040;7.472;2023-02-11T01:52:29;102114.91;;;6.45;30.60
58973;BME280;44750;52.040;7.472;2023-02-11T01:57:33;102116.44;;;6.49;31.24
58973;BME280;44750;52.040;7.472;2023-02-11T02:02:55;102097.00;;;6.44;31.43
58973;BME280;44750;52.040;7.472;2023-02-11T02:08:35;102096.38;;;6.55;31.79
58973;BME280;44750;52.040;7.472;2023-02-11T02:13:37;102095.88;;;6.48;32.93
58973;BME280;44750;52.040;7.472;2023-02-11T02:34:53;102084.81;;;6.53;33.91
58973;BME280;44750;52.040;7.472;2023-02-11T02:39:56;102082.13;;;6.53;34.00
58973;BME280;44750;52.040;7.472;2023-02-11T02:44:59;102048.50;;;6.46;34.60
58973;BME280;44750;52.040;7.472;2023-02-11T02:49:59;102065.97;;;6.53;34.26
58973;BME280;44750;52.040;7.472;2023-02-11T03:00:17;102059.75;;;6.52;34.86
58973;BME280;44750;52.040;7.472;2023-02-11T03:10:37;102042.16;;;6.47;35.21
58973;BME280;44750;52.040;7.472;2023-02-11T03:15:43;102018.31;;;6.41;35.82
58973;BME280;44750;52.040;7.472;2023-02-11T03:20:48;102028.03;;;6.43;35.40
58973;BME280;44750;52.040;7.472;2023-02-11T03:25:55;102026.50;;;6.39;34.81
58973;BME280;44750;52.040;7.472;2023-02-11T03:31:08;102045.91;;;6.44;34.25
58973;BME280;44750;52.040;7.472;2023-02-11T03:36:13;102056.84;;;6.41;34.01
58973;BME280;44750;52.040;7.472;2023-02-11T03:41:16;102053.78;;;6.47;33.71
58973;BME280;44750;52.040;7.472;2023-02-11T03:46:23;102074.84;;;6.55;33.52
58973;BME280;44750;52.040;7.472;2023-02-11T03:51:28;102052.63;;;6.51;34.73
58973;BME280;44750;52.040;7.472;2023-02-11T03:56:32;102055.41;;;6.50;34.58
58973;BME280;44750;52.040;7.472;2023-02-11T04:01:34;102055.63;;;6.47;34.00
58973;BME280;44750;52.040;7.472;2023-02-11T04:06:35;102070.50;;;6.52;34.66
58973;BME280;44750;52.040;7.472;2023-02-11T04:11:35;102092.53;;;6.59;33.93
58973;BME280;44750;52.040;7.472;2023-02-11T04:16:35;102087.69;;;6.50;34.44
58973;BME280;44750;52.040;7.472;2023-02-11T04:21:35;102081.47;;;6.49;33.54
58973;BME280;44750;52.040;7.472;2023-02-11T04:26:35;102082.41;;;6.48;33.72
58973;BME280;44750;52.040;7.472;2023-02-11T04:31:36;102083.38;;;6.47;32.57
58973;BME280;44750;52.040;7.472;2023-02-11T04:36:36;102072.00;;;6.42;31.73
58973;BME280;44750;52.040;7.472;2023-02-11T04:41:36;102078.38;;;6.41;31.19
58973;BME280;44750;52.040;7.472;2023-02-11T04:46:36;102093.63;;;6.41;30.51
58973;BME280;44750;52.040;7.472;2023-02-11T04:51:37;102097.97;;;6.43;29.66
58973;BME280;44750;52.040;7.472;2023-02-11T04:56:37;102110.56;;;6.43;28.92
58973;BME280;44750;52.040;7.472;2023-02-11T05:01:38;102116.53;;;6.48;28.48
58973;BME280;44750;52.040;7.472;2023-02-11T05:06:38;102106.97;;;6.42;28.85
58973;BME280;44750;52.040;7.472;2023-02-11T05:11:39;102115.66;;;6.47;28.35
58973;BME280;44750;52.040;7.472;2023-02-11T05:16:39;102105.84;;;6.46;28.43
58973;BME280;44750;52.040;7.472;2023-02-11T05:21:39;102117.38;;;6.48;28.51
58973;BME280;44750;52.040;7.472;2023-02-11T05:26:39;102114.00;;;6.45;28.34
58973;BME280;44750;52.040;7.472;2023-02-11T05:31:39;102114.91;;;6.45;28.59
58973;BME280;44750;52.040;7.472;2023-02-11T05:36:40;102105.94;;;6.45;27.93
58973;BME280;44750;52.040;7.472;2023-02-11T05:41:40;102108.63;;;6.45;28.12
58973;BME280;44750;52.040;7.472;2023-02-11T05:46:40;102120.19;;;6.47;27.71
58973;BME280;44750;52.040;7.472;2023-02-11T05:51:40;102118.19;;;6.50;26.95
58973;BME280;44750;52.040;7.472;2023-02-11T05:56:41;102103.84;;;6.50;27.30
58973;BME280;44750;52.040;7.472;2023-02-11T06:01:41;102104.88;;;6.47;27.29
58973;BME280;44750;52.040;7.472;2023-02-11T06:06:42;102127.97;;;6.51;27.02
58973;BME280;44750;52.040;7.472;2023-02-11T06:11:42;102112.78;;;6.50;26.89
58973;BME280;44750;52.040;7.472;2023-02-11T06:16:42;102108.53;;;6.46;27.04
58973;BME280;44750;52.040;7.472;2023-02-11T06:21:42;102129.88;;;6.49;25.86
58973;BME280;44750;52.040;7.472;2023-02-11T06:26:43;102147.38;;;6.57;25.78
58973;BME280;44750;52.040;7.472;2023-02-11T06:31:43;102143.25;;;6.51;25.34
58973;BME280;44750;52.040;7.472;2023-02-11T06:36:43;102137.00;;;6.50;24.90
58973;BME280;44750;52.040;7.472;2023-02-11T06:41:43;102117.59;;;6.45;24.90
58973;BME280;44750;52.040;7.472;2023-02-11T06:46:44;102139.84;;;6.47;23.69
58973;BME280;44750;52.040;7.472;2023-02-11T06:51:44;102142.75;;;6.44;22.46
58973;BME280;44750;52.040;7.472;2023-02-11T06:56:44;102156.94;;;6.46;21.26
58973;BME280;44750;52.040;7.472;2023-02-11T07:01:45;102168.78;;;6.44;20.42
58973;BME280;44750;52.040;7.472;2023-02-11T07:06:45;102174.16;;;6.44;18.30
58973;BME280;44750;52.040;7.472;2023-02-11T07:11:45;102186.38;;;6.49;16.35
58973;BME280;44750;52.040;7.472;2023-02-11T07:16:46;102186.28;;;6.51;15.03
58973;BME280;44750;52.040;7.472;2023-02-11T07:21:46;102204.16;;;6.52;14.37
58973;BME280;44750;52.040;7.472;2023-02-11T07:26:46;102178.84;;;6.40;13.09
58973;BME280;44750;52.040;7.472;2023-02-11T07:31:46;102206.06;;;6.50;11.78
58973;BME280;44750;52.040;7.472;2023-02-11T07:36:46;102205.38;;;6.46;10.24
58973;BME280;44750;52.040;7.472;2023-02-11T07:41:47;102221.34;;;6.49;9.14
58973;BME280;44750;52.040;7.472;2023-02-11T07:46:47;102232.97;;;6.50;7.45
58973;BME280;44750;52.040;7.472;2023-02-11T07:51:47;102260.56;;;6.53;6.05
58973;BME280;44750;52.040;7.472;2023-02-11T07:56:48;102253.78;;;6.46;4.63
58973;BME280;44750;52.040;7.472;2023-02-11T08:01:48;102289.88;;;6.58;3.11
58973;BME280;44750;52.040;7.472;2023-02-11T08:06:48;102277.31;;;6.59;2.51
58973;BME280;44750;52.040;7.472;2023-02-11T08:11:48;102277.06;;;6.47;0.61
58973;BME280;44750;52.040;7.472;2023-02-11T08:16:49;102307.25;;;6.52;0.00
58973;BME280;44750;52.040;7.472;2023-02-11T08:21:49;102330.84;;;6.63;0.00
58973;BME280;44750;52.040;7.472;2023-02-11T08:26:49;102330.75;;;6.65;0.00
58973;BME280;44750;52.040;7.472;2023-02-11T08:31:50;102346.16;;;6.63;0.00
58973;BME280;44750;52.040;7.472;2023-02-11T08:36:50;102360.72;;;6.75;0.00
58973;BME280;44750;52.040;7.472;2023-02-11T08:41:52;102346.28;;;6.76;0.00
58973;BME280;44750;52.040;7.472;2023-02-11T08:46:53;102356.00;;;6.78;0.00
58973;BME280;44750;52.040;7.472;2023-02-11T08:51:53;102360.53;;;6.78;0.00
58973;BME280;44750;52.040;7.472;2023-02-11T08:56:53;102388.16;;;6.81;0.00
58973;BME280;44750;52.040;7.472;2023-02-11T09:01:53;102379.66;;;6.73;0.00
58973;BME280;44750;52.040;7.472;2023-02-11T09:06:54;102405.50;;;6.76;0.00
58973;BME280;44750;52.040;7.472;2023-02-11T09:11:54;102424.81;;;6.84;0.00
58973;BME280;44750;52.040;7.472;2023-02-11T09:16:54;102440.69;;;6.89;0.00
58973;BME280;44750;52.040;7.472;2023-02-11T09:21:54;102453.44;;;6.85;0.00
58973;BME280;44750;52.040;7.472;2023-02-11T09:26:55;102460.66;;;6.84;0.00
58973;BME280;44750;52.040;7.472;2023-02-11T09:31:55;102461.59;;;6.83;0.00
58973;BME280;44750;52.040;7.472;2023-02-11T09:36:55;102479.16;;;6.91;0.00
58973;BME280;44750;52.040;7.472;2023-02-11T09:42:07;102484.47;;;6.92;0.00
58973;BME280;44750;52.040;7.472;2023-02-11T09:47:27;102494.81;;;7.00;0.00
58973;BME280;44750;52.040;7.472;2023-02-11T09:57:34;102494.28;;;6.93;0.00
58973;BME280;44750;52.040;7.472;2023-02-11T10:08:03;102550.38;;;7.17;0.00
58973;BME280;44750;52.040;7.472;2023-02-11T10:23:26;102585.50;;;7.15;0.00
58973;BME280;44750;52.040;7.472;2023-02-11T10:28:31;102608.09;;;7.29;0.00
58973;BME280;44750;52.040;7.472;2023-02-11T10:33:38;102617.50;;;7.38;0.00
58973;BME280;44750;52.040;7.472;2023-02-11T10:38:42;102612.22;;;7.36;0.00
58973;BME280;44750;52.040;7.472;2023-02-11T10:43:43;102623.66;;;7.40;0.00
58973;BME280;44750;52.040;7.472;2023-02-11T10:48:48;102617.31;;;7.41;0.00
58973;BME280;44750;52.040;7.472;2023-02-11T10:54:11;102635.69;;;7.50;0.00
58973;BME280;44750;52.040;7.472;2023-02-11T10:59:32;102633.88;;;7.50;0.00
58973;BME280;44750;52.040;7.472;2023-02-11T11:04:41;102611.09;;;7.40;0.00
58973;BME280;44750;52.040;7.472;2023-02-11T11:09:46;102625.00;;;7.48;0.00
58973;BME280;44750;52.040;7.472;2023-02-11T11:14:59;102617.53;;;7.53;0.00
58973;BME280;44750;52.040;7.472;2023-02-11T11:20:23;102623.69;;;7.56;0.00
58973;BME280;44750;52.040;7.472;2023-02-11T11:25:27;102642.03;;;7.65;0.00
58973;BME280;44750;52.040;7.472;2023-02-11T11:30:40;102641.25;;;7.63;0.00
58973;BME280;44750;52.040;7.472;2023-02-11T11:35:57;102635.59;;;7.67;0.00
58973;BME280;44750;52.040;7.472;2023-02-11T11:46:22;102661.59;;;7.84;0.00
58973;BME280;44750;52.040;7.472;2023-02-11T11:51:23;102656.81;;;7.90;0.00
58973;BME280;44750;52.040;7.472;2023-02-11T11:56:25;102652.22;;;7.92;0.00
58973;BME280;44750;52.040;7.472;2023-02-11T12:43:33;102649.41;;;8.40;0.00
58973;BME280;44750;52.040;7.472;2023-02-11T13:05:04;102624.59;;;8.79;0.00
58973;BME280;44750;52.040;7.472;2023-02-11T13:10:24;102607.63;;;8.92;0.00
58973;BME280;44750;52.040;7.472;2023-02-11T13:15:25;102591.03;;;8.98;0.00
58973;BME280;44750;52.040;7.472;2023-02-11T13:25:59;102571.91;;;9.15;0.00
58973;BME280;44750;52.040;7.472;2023-02-11T13:31:03;102534.97;;;9.16;0.00
58973;BME280;44750;52.040;7.472;2023-02-11T13:41:27;102485.41;;;9.30;0.00
58973;BME280;44750;52.040;7.472;2023-02-11T13:47:03;102470.69;;;9.48;0.00
58973;BME280;44750;52.040;7.472;2023-02-11T13:52:14;102452.09;;;9.57;0.00
58973;BME280;44750;52.040;7.472;2023-02-11T14:02:28;102422.97;;;9.87;4.78
58973;BME280;44750;52.040;7.472;2023-02-11T14:07:31;102386.81;;;9.88;7.96
58973;BME280;44750;52.040;7.472;2023-02-11T14:12:33;102349.06;;;9.87;11.87
58973;BME280;44750;52.040;7.472;2023-02-11T14:17:33;102323.63;;;9.77;15.17
58973;BME280;44750;52.040;7.472;2023-02-11T14:22:43;102297.69;;;9.74;17.26
58973;BME280;44750;52.040;7.472;2023-02-11T14:27:52;102261.13;;;9.68;19.32
58973;BME280;44750;52.040;7.472;2023-02-11T14:33:05;102234.97;;;9.56;21.24
58973;BME280;44750;52.040;7.472;2023-02-11T14:38:32;102216.91;;;9.57;21.50
58973;BME280;44750;52.040;7.472;2023-02-11T14:43:51;102191.72;;;9.43;22.62
58973;BME280;44750;52.040;7.472;2023-02-11T14:48:54;102209.13;;;9.52;22.49
58973;BME280;44750;52.040;7.472;2023-02-11T14:54:01;102198.63;;;9.47;23.32
58973;BME280;44750;52.040;7.472;2023-02-11T14:59:02;102190.00;;;9.42;23.72
58973;BME280;44750;52.040;7.472;2023-02-11T15:04:05;102185.47;;;9.43;24.47
58973;BME280;44750;52.040;7.472;2023-02-11T15:09:13;102176.16;;;9.34;24.78
58973;BME280;44750;52.040;7.472;2023-02-11T15:14:21;102187.72;;;9.49;24.91
58973;BME280;44750;52.040;7.472;2023-02-11T15:24:25;102173.66;;;9.57;26.90
58973;BME280;44750;52.040;7.472;2023-02-11T15:29:28;102165.78;;;9.53;28.47
58973;BME280;44750;52.040;7.472;2023-02-11T15:34:33;102149.25;;;9.45;29.25
58973;BME280;44750;52.040;7.472;2023-02-11T15:39:38;102170.09;;;9.56;29.27
58973;BME280;44750;52.040;7.472;2023-02-11T15:44:39;102169.44;;;9.52;30.41
58973;BME280;44750;52.040;7.472;2023-02-11T15:49:43;102166.84;;;9.51;30.62
58973;BME280;44750;52.040;7.472;2023-02-11T15:54:45;102150.34;;;9.43;31.33
58973;BME280;44750;52.040;7.472;2023-02-11T15:59:48;102147.75;;;9.41;31.35
58973;BME280;44750;52.040;7.472;2023-02-11T16:04:55;102164.69;;;9.43;30.97
58973;BME280;44750;52.040;7.472;2023-02-11T16:09:57;102162.34;;;9.39;30.93
58973;BME280;44750;52.040;7.472;2023-02-11T16:14:57;102166.84;;;9.38;31.22
58973;BME280;44750;52.040;7.472;2023-02-11T16:19:58;102173.03;;;9.40;30.52
58973;BME280;44750;52.040;7.472;2023-02-11T16:24:58;102179.63;;;9.36;30.38
58973;BME280;44750;52.040;7.472;2023-02-11T16:29:58;102186.34;;;9.30;30.78
58973;BME280;44750;52.040;7.472;2023-02-11T16:34:59;102190.88;;;9.30;29.56
58973;BME280;44750;52.040;7.472;2023-02-11T16:39:59;102198.13;;;9.29;29.03
58973;BME280;44750;52.040;7.472;2023-02-11T16:44:59;102203.09;;;9.23;28.84
58973;BME280;44750;52.040;7.472;2023-02-11T16:50:01;102194.31;;;9.19;28.38
58973;BME280;44750;52.040;7.472;2023-02-11T16:55:05;102215.41;;;9.27;27.72
58973;BME280;44750;52.040;7.472;2023-02-11T17:00:06;102218.53;;;9.20;27.45
58973;BME280;44750;52.040;7.472;2023-02-11T17:05:15;102220.69;;;9.15;27.41
58973;BME280;44750;52.040;7.472;2023-02-11T17:10:22;102220.13;;;9.10;25.90
58973;BME280;44750;52.040;7.472;2023-02-11T17:15:22;102244.25;;;9.13;25.39
58973;BME280;44750;52.040;7.472;2023-02-11T17:20:22;102242.75;;;9.09;24.65
58973;BME280;44750;52.040;7.472;2023-02-11T17:25:23;102253.56;;;9.09;23.75
58973;BME280;44750;52.040;7.472;2023-02-11T17:30:23;102271.28;;;9.13;22.90
58973;BME280;44750;52.040;7.472;2023-02-11T17:35:23;102292.88;;;9.13;22.13
58973;BME280;44750;52.040;7.472;2023-02-11T17:40:24;102292.34;;;9.08;21.50
58973;BME280;44750;52.040;7.472;2023-02-11T17:45:24;102303.88;;;9.10;20.73
58973;BME280;44750;52.040;7.472;2023-02-11T17:50:24;102307.75;;;9.06;20.40
58973;BME280;44750;52.040;7.472;2023-02-11T17:55:24;102321.09;;;9.09;19.24
58973;BME280;44750;52.040;7.472;2023-02-11T18:00:24;102309.06;;;9.00;18.69
58973;BME280;44750;52.040;7.472;2023-02-11T18:05:25;102328.19;;;9.10;17.66
58973;BME280;44750;52.040;7.472;2023-02-11T18:10:25;102328.31;;;9.09;17.43
58973;BME280;44750;52.040;7.472;2023-02-11T18:15:25;102356.84;;;9.13;16.79
58973;BME280;44750;52.040;7.472;2023-02-11T18:20:26;102343.00;;;9.04;16.76
58973;BME280;44750;52.040;7.472;2023-02-11T18:25:26;102352.72;;;9.07;16.26
58973;BME280;44750;52.040;7.472;2023-02-11T18:30:27;102332.16;;;8.92;16.33
58973;BME280;44750;52.040;7.472;2023-02-11T18:35:28;102367.31;;;9.04;15.44
58973;BME280;44750;52.040;7.472;2023-02-11T18:40:28;102372.03;;;9.01;15.31
58973;BME280;44750;52.040;7.472;2023-02-11T18:45:28;102385.97;;;8.95;14.67
58973;BME280;44750;52.040;7.472;2023-02-11T18:50:28;102373.16;;;8.84;14.58
58973;BME280;44750;52.040;7.472;2023-02-11T18:55:28;102399.84;;;8.89;14.05
58973;BME280;44750;52.040;7.472;2023-02-11T19:00:29;102430.03;;;8.95;13.31
58973;BME280;44750;52.040;7.472;2023-02-11T19:05:29;102425.91;;;8.90;12.83
58973;BME280;44750;52.040;7.472;2023-02-11T19:10:29;102461.16;;;9.01;12.09
58973;BME280;44750;52.040;7.472;2023-02-11T19:15:29;102472.38;;;8.95;11.88
58973;BME280;44750;52.040;7.472;2023-02-11T19:20:30;102473.06;;;8.98;11.70
58973;BME280;44750;52.040;7.472;2023-02-11T19:25:30;102476.72;;;8.97;11.85
58973;BME280;44750;52.040;7.472;2023-02-11T19:30:30;102491.66;;;9.03;11.11
58973;BME280;44750;52.040;7.472;2023-02-11T19:35:32;102501.31;;;9.07;10.99
58973;BME280;44750;52.040;7.472;2023-02-11T19:40:33;102507.66;;;9.06;11.51
58973;BME280;44750;52.040;7.472;2023-02-11T19:45:37;102500.72;;;9.02;12.02
58973;BME280;44750;52.040;7.472;2023-02-11T19:50:37;102507.88;;;9.03;11.79
58973;BME280;44750;52.040;7.472;2023-02-11T19:55:37;102519.47;;;9.05;12.07
58973;BME280;44750;52.040;7.472;2023-02-11T20:00:38;102512.59;;;8.99;12.36
58973;BME280;44750;52.040;7.472;2023-02-11T20:05:38;102498.03;;;8.87;12.33
58973;BME280;44750;52.040;7.472;2023-02-11T20:10:39;102496.50;;;8.83;12.45
58973;BME280;44750;52.040;7.472;2023-02-11T20:15:39;102519.25;;;8.94;11.53
58973;BME280;44750;52.040;7.472;2023-02-11T20:20:39;102518.50;;;8.92;11.97
58973;BME280;44750;52.040;7.472;2023-02-11T20:25:40;102537.69;;;9.01;11.76
58973;BME280;44750;52.040;7.472;2023-02-11T20:30:40;102528.91;;;8.98;12.32
58973;BME280;44750;52.040;7.472;2023-02-11T20:35:40;102530.06;;;8.94;12.74
58973;BME280;44750;52.040;7.472;2023-02-11T20:40:40;102518.59;;;8.90;12.57
58973;BME280;44750;52.040;7.472;2023-02-11T20:45:41;102515.81;;;8.92;13.22
58973;BME280;44750;52.040;7.472;2023-02-11T20:50:41;102504.22;;;8.90;13.34
58973;BME280;44750;52.040;7.472;2023-02-11T20:55:41;102504.22;;;8.90;13.50
58973;BME280;44750;52.040;7.472;2023-02-11T21:00:41;102504.13;;;8.77;13.51
58973;BME280;44750;52.040;7.472;2023-02-11T21:05:41;102506.94;;;8.75;12.99
58973;BME280;44750;52.040;7.472;2023-02-11T21:10:42;102521.22;;;8.77;12.31
58973;BME280;44750;52.040;7.472;2023-02-11T21:15:42;102531.81;;;8.80;12.21
58973;BME280;44750;52.040;7.472;2023-02-11T21:20:42;102539.91;;;8.80;11.66
58973;BME280;44750;52.040;7.472;2023-02-11T21:25:42;102533.72;;;8.78;11.88
58973;BME280;44750;52.040;7.472;2023-02-11T21:30:43;102537.69;;;8.73;11.50
58973;BME280;44750;52.040;7.472;2023-02-11T21:35:43;102569.63;;;8.80;11.29
58973;BME280;44750;52.040;7.472;2023-02-11T21:40:44;102566.34;;;8.75;10.69
58973;BME280;44750;52.040;7.472;2023-02-11T21:45:45;102567.28;;;8.74;10.92
58973;BME280;44750;52.040;7.472;2023-02-11T21:50:47;102572.31;;;8.66;10.56
58973;BME280;44750;52.040;7.472;2023-02-11T21:55:47;102591.69;;;8.73;9.57
58973;BME280;44750;52.040;7.472;2023-02-11T22:00:47;102605.19;;;8.73;9.69
58973;BME280;44750;52.040;7.472;2023-02-11T22:05:47;102588.59;;;8.64;9.31
58973;BME280;44750;52.040;7.472;2023-02-11T22:10:48;102600.94;;;8.68;9.01
58973;BME280;44750;52.040;7.472;2023-02-11T22:15:56;102616.09;;;8.71;8.28
58973;BME280;44750;52.040;7.472;2023-02-11T22:21:05;102614.34;;;8.70;8.31
58973;BME280;44750;52.040;7.472;2023-02-11T22:26:17;102605.84;;;8.62;8.37
58973;BME280;44750;52.040;7.472;2023-02-11T22:31:37;102635.00;;;8.71;7.87
58973;BME280;44750;52.040;7.472;2023-02-11T22:36:39;102659.28;;;8.71;8.27
58973;BME280;44750;52.040;7.472;2023-02-11T22:41:41;102680.69;;;8.74;8.49
58973;BME280;44750;52.040;7.472;2023-02-11T22:46:42;102680.34;;;8.80;8.41
58973;BME280;44750;52.040;7.472;2023-02-11T22:51:43;102664.31;;;8.77;9.14
58973;BME280;44750;52.040;7.472;2023-02-11T22:56:44;102668.69;;;8.80;9.63
58973;BME280;44750;52.040;7.472;2023-02-11T23:01:44;102671.63;;;8.75;9.70
58973;BME280;44750;52.040;7.472;2023-02-11T23:06:45;102680.53;;;8.77;10.18
58973;BME280;44750;52.040;7.472;2023-02-11T23:11:45;102665.75;;;8.68;11.38
58973;BME280;44750;52.040;7.472;2023-02-11T23:16:48;102670.88;;;8.73;10.73
58973;BME280;44750;52.040;7.472;2023-02-11T23:21:50;102661.41;;;8.66;11.42
58973;BME280;44750;52.040;7.472;2023-02-11T23:26:50;102666.78;;;8.66;11.24
58973;BME280;44750;52.040;7.472;2023-02-11T23:31:50;102670.28;;;8.68;11.25
58973;BME280;44750;52.040;7.472;2023-02-11T23:36:51;102659.25;;;8.57;11.54
58973;BME280;44750;52.040;7.472;2023-02-11T23:41:52;102661.94;;;8.57;11.38
58973;BME280;44750;52.040;7.472;2023-02-11T23:46:52;102659.44;;;8.53;11.64
58973;BME280;44750;52.040;7.472;2023-02-11T23:51:52;102658.66;;;8.51;11.43
58973;BME280;44750;52.040;7.472;2023-02-11T23:56:52;102663.88;;;8.55;10.38
